Time;durP1;ratioP1;P1;durP2;ratioP2;P2;SDS_P1;SDS_P2;PMS_P1;PMS_P2;Temp;Humidity;BMP_temperature;BMP_pressure;BME280_temperature;BME280_humidity;BME280_pressure;Samples;Min_cycle;Max_cycle;Signal;HPM_P1;HPM_P2
2021/08/16 00:01:44;;;;;;;18.15;6.00;;;27.60;88.50;;;;;;4845368;29;20049;-87
2021/08/16 00:04:10;;;;;;;11.30;5.55;;;27.70;88.60;;;;;;4845739;29;20030;-88
2021/08/16 00:06:36;;;;;;;8.43;5.57;;;27.80;88.50;;;;;;4845585;29;20562;-88
2021/08/16 00:09:02;;;;;;;11.70;5.13;;;27.80;88.50;;;;;;4845569;29;20049;-83
2021/08/16 00:11:28;;;;;;;9.68;5.90;;;27.90;88.40;;;;;;4844340;29;20133;-83
2021/08/16 00:13:53;;;;;;;14.10;5.82;;;28.00;90.00;;;;;;4845464;29;20072;-82
2021/08/16 00:16:19;;;;;;;14.35;6.05;;;28.00;90.60;;;;;;4845698;29;20392;-84
2021/08/16 00:18:47;;;;;;;8.30;5.88;;;28.10;91.70;;;;;;4845454;29;20034;-87
2021/08/16 00:21:14;;;;;;;13.40;5.65;;;28.10;92.30;;;;;;4844067;29;20044;-86
2021/08/16 00:23:40;;;;;;;8.32;5.40;;;28.10;92.50;;;;;;4845390;29;20118;-86
2021/08/16 00:26:06;;;;;;;11.48;5.70;;;28.20;92.80;;;;;;4845357;29;20037;-88
2021/08/16 00:28:31;;;;;;;9.60;5.40;;;28.20;92.70;;;;;;4845574;29;20098;-87
2021/08/16 00:30:57;;;;;;;9.60;5.75;;;28.30;92.60;;;;;;4845130;29;20056;-87
2021/08/16 00:33:23;;;;;;;12.15;6.03;;;28.30;92.50;;;;;;4845007;29;20094;-86
2021/08/16 00:35:49;;;;;;;17.98;6.30;;;28.30;92.50;;;;;;4845063;29;20476;-84
2021/08/16 00:38:14;;;;;;;11.82;5.93;;;28.30;92.20;;;;;;4845393;29;20025;-87
2021/08/16 00:40:40;;;;;;;14.60;5.78;;;28.20;90.40;;;;;;4844884;29;20061;-88
2021/08/16 00:43:06;;;;;;;12.40;5.13;;;28.10;90.50;;;;;;4845194;29;20499;-87
2021/08/16 00:45:32;;;;;;;11.52;5.95;;;28.00;90.40;;;;;;4845043;29;20041;-85
2021/08/16 00:47:58;;;;;;;15.00;5.40;;;27.90;90.10;;;;;;4844818;29;20038;-88
2021/08/16 00:50:24;;;;;;;15.48;5.40;;;27.80;89.00;;;;;;4844530;29;20395;-85
2021/08/16 00:52:50;;;;;;;11.80;5.10;;;27.70;89.00;;;;;;4844960;29;20046;-83
2021/08/16 00:55:17;;;;;;;10.10;5.30;;;27.70;88.10;;;;;;4828364;29;20034;-86
2021/08/16 00:57:43;;;;;;;8.13;5.10;;;27.70;87.70;;;;;;4844910;29;20380;-86
2021/08/16 01:00:10;;;;;;;15.45;6.13;;;27.70;87.80;;;;;;4844724;29;20051;-88
2021/08/16 01:02:42;;;;;;;11.00;5.05;;;27.70;88.10;;;;;;4845003;29;20461;-82
2021/08/16 01:05:11;;;;;;;9.57;5.47;;;27.80;88.40;;;;;;4844784;29;20042;-84
2021/08/16 01:07:39;;;;;;;15.10;5.40;;;27.80;88.40;;;;;;4844876;29;20391;-87
2021/08/16 01:10:06;;;;;;;13.75;5.43;;;27.70;88.20;;;;;;4844758;29;20044;-88
2021/08/16 01:12:34;;;;;;;7.20;5.40;;;27.70;88.20;;;;;;4844775;29;20071;-86
2021/08/16 01:15:05;;;;;;;19.13;4.75;;;27.80;87.90;;;;;;4844765;29;20360;-88
2021/08/16 01:17:31;;;;;;;16.33;5.05;;;27.70;87.20;;;;;;4844694;29;20034;-82
2021/08/16 01:19:57;;;;;;;11.10;5.00;;;27.80;87.00;;;;;;4844516;29;20058;-85
2021/08/16 01:22:23;;;;;;;10.05;4.78;;;27.70;86.80;;;;;;4844414;29;20034;-86
2021/08/16 01:24:49;;;;;;;12.38;5.03;;;27.80;87.30;;;;;;4844460;29;20034;-85
2021/08/16 01:27:14;;;;;;;11.93;5.22;;;27.70;86.90;;;;;;4827949;29;20034;-84
2021/08/16 01:29:41;;;;;;;8.07;4.95;;;27.60;86.90;;;;;;4844333;29;20437;-88
2021/08/16 01:32:07;;;;;;;6.93;4.72;;;27.60;86.60;;;;;;4844218;29;20042;-88
2021/08/16 01:34:33;;;;;;;9.32;4.75;;;27.60;86.60;;;;;;4844455;29;20037;-87
2021/08/16 01:37:00;;;;;;;8.25;5.43;;;27.60;86.60;;;;;;4844572;29;20177;-88
2021/08/16 01:39:27;;;;;;;11.30;5.03;;;27.60;86.70;;;;;;4844324;29;20034;-85
2021/08/16 01:41:53;;;;;;;16.88;4.78;;;27.60;86.90;;;;;;4842780;29;20167;-82
2021/08/16 01:44:20;;;;;;;7.18;5.20;;;27.60;87.00;;;;;;4843900;29;20116;-85
2021/08/16 01:46:46;;;;;;;14.50;5.25;;;27.60;87.20;;;;;;4844282;29;20060;-81
2021/08/16 01:49:13;;;;;;;9.77;5.22;;;27.50;87.30;;;;;;4843998;29;20042;-86
2021/08/16 01:51:40;;;;;;;9.57;5.05;;;27.50;87.50;;;;;;4843820;29;20046;-88
2021/08/16 01:54:07;;;;;;;18.60;5.50;;;27.50;87.70;;;;;;4843816;29;20112;-82
2021/08/16 01:56:33;;;;;;;8.80;5.22;;;27.50;87.80;;;;;;4843989;29;20060;-87
2021/08/16 01:59:00;;;;;;;11.05;4.90;;;27.40;87.70;;;;;;4843206;29;20030;-87
2021/08/16 02:01:26;;;;;;;11.20;5.75;;;27.40;87.80;;;;;;4844177;29;20563;-87
2021/08/16 02:03:52;;;;;;;8.40;5.43;;;27.40;87.70;;;;;;4843617;29;20046;-84
2021/08/16 02:06:20;;;;;;;8.00;5.43;;;27.40;87.80;;;;;;4843698;29;20415;-89
2021/08/16 02:08:46;;;;;;;10.43;5.07;;;27.40;87.20;;;;;;4844342;29;20030;-87
2021/08/16 02:11:11;;;;;;;13.43;5.20;;;27.50;87.20;;;;;;4843726;29;20137;-85
2021/08/16 02:13:37;;;;;;;10.35;5.28;;;27.50;86.90;;;;;;4843909;29;20038;-88
2021/08/16 02:16:04;;;;;;;8.52;5.53;;;27.50;86.40;;;;;;4827624;29;20049;-91
2021/08/16 02:18:30;;;;;;;10.65;4.97;;;27.50;86.10;;;;;;4843894;29;20116;-89
2021/08/16 02:20:56;;;;;;;13.55;4.90;;;27.50;86.00;;;;;;4843739;29;20062;-89
2021/08/16 02:23:22;;;;;;;12.68;5.13;;;27.50;85.80;;;;;;4843566;29;20394;-90
2021/08/16 02:25:48;;;;;;;8.00;4.63;;;27.50;85.70;;;;;;4843629;29;20089;-88
2021/08/16 02:28:16;;;;;;;7.78;4.88;;;27.50;85.70;;;;;;4842643;29;20146;-84
2021/08/16 02:30:47;;;;;;;7.75;4.70;;;27.50;85.70;;;;;;4843871;29;20053;-80
2021/08/16 02:33:13;;;;;;;7.05;4.97;;;27.50;85.10;;;;;;4843925;29;20072;-90
2021/08/16 02:35:43;;;;;;;22.65;5.32;;;27.50;85.00;;;;;;4842363;29;20572;-90
2021/08/16 02:38:10;;;;;;;10.68;5.20;;;27.60;84.40;;;;;;4846953;29;20031;-89
2021/08/16 02:40:36;;;;;;;6.82;4.65;;;27.70;84.10;;;;;;4843928;29;20121;-89
2021/08/16 02:43:01;;;;;;;9.02;4.65;;;27.70;84.10;;;;;;4843925;29;20087;-83
2021/08/16 02:45:27;;;;;;;15.25;5.25;;;27.70;83.90;;;;;;4843657;29;20037;-91
2021/08/16 02:47:53;;;;;;;6.60;4.22;;;27.70;84.00;;;;;;4843464;29;20130;-84
2021/08/16 02:50:19;;;;;;;5.55;4.18;;;27.70;84.00;;;;;;4843291;29;20033;-94
2021/08/16 02:52:45;;;;;;;9.43;4.70;;;27.70;83.80;;;;;;4843237;29;20128;-88
2021/08/16 02:55:11;;;;;;;6.68;4.32;;;27.70;83.80;;;;;;4843108;29;20038;-86
2021/08/16 02:57:37;;;;;;;9.63;4.60;;;27.70;83.70;;;;;;4843358;29;20065;-88
2021/08/16 03:00:05;;;;;;;11.45;4.93;;;27.70;83.50;;;;;;4843484;29;20034;-85
2021/08/16 03:02:31;;;;;;;12.88;4.47;;;27.70;84.10;;;;;;4843004;29;20045;-87
2021/08/16 03:04:56;;;;;;;8.85;4.72;;;27.70;83.70;;;;;;4843545;29;20113;-95
2021/08/16 03:07:22;;;;;;;10.02;4.38;;;27.70;83.80;;;;;;4843619;29;20448;-95
2021/08/16 03:09:48;;;;;;;8.57;4.68;;;27.70;84.10;;;;;;4842221;29;20113;-83
2021/08/16 03:12:14;;;;;;;8.82;4.93;;;27.70;84.00;;;;;;4842776;29;20407;-89
2021/08/16 03:14:40;;;;;;;10.93;4.95;;;27.70;84.10;;;;;;4842813;29;20070;-89
2021/08/16 03:17:06;;;;;;;8.93;4.72;;;27.70;84.00;;;;;;4842787;29;20034;-84
2021/08/16 03:19:32;;;;;;;15.38;5.13;;;27.70;84.20;;;;;;4841735;29;20372;-85
2021/08/16 03:21:58;;;;;;;8.82;4.50;;;27.70;84.60;;;;;;4842618;29;20037;-87
2021/08/16 03:24:24;;;;;;;9.32;5.07;;;27.60;84.60;;;;;;4842197;29;20117;-91
2021/08/16 03:26:51;;;;;;;9.50;4.70;;;27.60;84.80;;;;;;4844863;29;20388;-89
2021/08/16 03:29:17;;;;;;;13.60;5.10;;;27.50;85.00;;;;;;4841468;29;20125;-86
2021/08/16 03:31:43;;;;;;;12.57;4.85;;;27.50;85.20;;;;;;4843707;29;20063;-87
2021/08/16 03:34:10;;;;;;;11.77;4.47;;;27.50;85.00;;;;;;4842384;29;20403;-89
2021/08/16 03:36:36;;;;;;;10.52;4.95;;;27.50;85.30;;;;;;4842575;29;20042;-84
2021/08/16 03:39:02;;;;;;;10.13;5.05;;;27.40;84.90;;;;;;4842498;29;20510;-88
2021/08/16 03:41:27;;;;;;;5.65;4.40;;;27.40;85.20;;;;;;4842153;29;20061;-87
2021/08/16 03:43:53;;;;;;;9.30;4.40;;;27.40;85.30;;;;;;4842538;29;20483;-83
2021/08/16 03:46:19;;;;;;;10.20;5.18;;;27.40;85.40;;;;;;4841059;29;20423;-86
2021/08/16 03:48:44;;;;;;;8.98;4.68;;;27.30;85.60;;;;;;4842542;29;20030;-87
2021/08/16 03:51:11;;;;;;;12.18;4.80;;;27.30;85.30;;;;;;4842161;29;20503;-84
2021/08/16 03:53:37;;;;;;;10.50;5.00;;;27.30;85.60;;;;;;4841948;29;20046;-84
2021/08/16 03:56:03;;;;;;;15.52;4.82;;;27.30;86.10;;;;;;4842397;29;20499;-85
2021/08/16 03:58:29;;;;;;;12.27;5.03;;;27.30;86.40;;;;;;4843080;29;20034;-92
2021/08/16 04:00:55;;;;;;;18.77;5.25;;;27.20;86.70;;;;;;4842818;29;20372;-83
2021/08/16 04:03:20;;;;;;;11.40;5.07;;;27.20;86.80;;;;;;4841330;29;20121;-88
2021/08/16 04:05:46;;;;;;;10.82;4.70;;;27.10;86.70;;;;;;4842402;29;20038;-90
2021/08/16 04:08:12;;;;;;;13.55;5.20;;;27.10;86.60;;;;;;4842166;29;20487;-85
2021/08/16 04:10:38;;;;;;;15.20;5.45;;;27.00;86.80;;;;;;4842225;29;20102;-88
2021/08/16 04:13:03;;;;;;;11.55;5.45;;;27.00;86.90;;;;;;4840932;29;20093;-87
2021/08/16 04:15:29;;;;;;;11.60;5.18;;;26.90;86.90;;;;;;4841852;29;20068;-86
2021/08/16 04:17:55;;;;;;;7.72;5.03;;;26.90;87.00;;;;;;4826189;29;20071;-87
2021/08/16 04:20:21;;;;;;;15.80;5.38;;;26.90;86.70;;;;;;4842669;29;20107;-83
2021/08/16 04:22:47;;;;;;;10.13;5.15;;;26.90;86.80;;;;;;4845508;29;20091;-87
2021/08/16 04:25:16;;;;;;;14.35;4.93;;;26.90;86.10;;;;;;4845465;29;20030;-84
2021/08/16 04:27:42;;;;;;;12.23;5.15;;;26.90;86.20;;;;;;4845567;29;20117;-87
2021/08/16 04:30:09;;;;;;;9.20;4.85;;;27.00;85.40;;;;;;4845560;29;20511;-87
2021/08/16 04:32:36;;;;;;;11.70;5.45;;;27.10;84.70;;;;;;4845839;29;20041;-90
2021/08/16 04:35:02;;;;;;;13.23;4.88;;;27.20;84.50;;;;;;4844142;29;20044;-85
2021/08/16 04:37:27;;;;;;;12.77;4.72;;;27.30;84.60;;;;;;4844400;29;20050;-84
2021/08/16 04:39:53;;;;;;;14.68;4.90;;;27.30;85.70;;;;;;4845655;29;20041;-92
2021/08/16 04:42:19;;;;;;;11.00;5.07;;;27.50;85.10;;;;;;4845323;29;20030;-90
2021/08/16 04:44:46;;;;;;;11.98;4.78;;;27.50;85.30;;;;;;4845219;29;20117;-87
2021/08/16 04:47:11;;;;;;;14.88;5.80;;;27.60;85.10;;;;;;4845248;29;20042;-84
2021/08/16 04:49:37;;;;;;;15.63;5.28;;;27.70;85.20;;;;;;4845167;29;20543;-90
2021/08/16 04:52:03;;;;;;;12.13;4.80;;;27.80;85.10;;;;;;4844891;29;20058;-82
2021/08/16 04:54:29;;;;;;;8.43;4.47;;;27.90;84.90;;;;;;4845002;29;20045;-82
2021/08/16 04:56:54;;;;;;;12.23;4.60;;;28.00;84.80;;;;;;4845040;29;20038;-87
2021/08/16 04:59:20;;;;;;;7.38;4.90;;;28.20;84.00;;;;;;4843808;29;20045;-90
2021/08/16 05:01:48;;;;;;;15.90;5.20;;;28.30;84.70;;;;;;4843383;29;20044;-81
2021/08/16 05:04:14;;;;;;;19.02;5.28;;;28.60;84.30;;;;;;4845907;29;20383;-83
2021/08/16 05:06:43;;;;;;;17.50;5.25;;;29.00;84.80;;;;;;4845061;29;20105;-85
2021/08/16 05:09:09;;;;;;;14.93;5.57;;;29.30;84.60;;;;;;4845052;29;20038;-89
2021/08/16 05:11:35;;;;;;;12.07;5.43;;;29.70;83.70;;;;;;4845213;29;20495;-82
2021/08/16 05:14:01;;;;;;;17.02;5.85;;;30.00;83.10;;;;;;4847162;29;20304;-81
2021/08/16 05:16:27;;;;;;;15.20;5.35;;;30.50;84.10;;;;;;4845765;29;20646;-82
2021/08/16 05:18:54;;;;;;;17.23;5.57;;;31.00;84.30;;;;;;4846597;29;20465;-89
2021/08/16 05:21:21;;;;;;;21.52;6.20;;;31.90;83.30;;;;;;4844789;29;20030;-80
2021/08/16 05:23:47;;;;;;;17.58;6.15;;;33.00;81.90;;;;;;4844552;29;20057;-86
2021/08/16 05:26:13;;;;;;;23.20;5.82;;;33.90;79.90;;;;;;4844683;29;20072;-81
2021/08/16 05:28:39;;;;;;;17.48;5.45;;;34.70;78.60;;;;;;4844601;29;20380;-80
2021/08/16 05:31:04;;;;;;;21.83;6.63;;;35.20;77.20;;;;;;4844402;29;20120;-86
2021/08/16 05:33:30;;;;;;;15.90;5.03;;;35.80;75.90;;;;;;4843381;29;20058;-82
2021/08/16 05:35:56;;;;;;;12.25;4.63;;;36.50;75.10;;;;;;4844436;29;20507;-84
2021/08/16 05:38:22;;;;;;;10.35;5.25;;;36.90;74.30;;;;;;4844218;29;20030;-83
2021/08/16 05:40:47;;;;;;;15.70;5.10;;;37.10;73.70;;;;;;4844335;29;20182;-83
2021/08/16 05:43:13;;;;;;;12.95;5.38;;;37.30;73.10;;;;;;4843986;29;20030;-83
2021/08/16 05:45:39;;;;;;;13.63;5.43;;;37.30;73.50;;;;;;4844089;29;20079;-83
2021/08/16 05:48:05;;;;;;;13.40;5.55;;;37.50;72.20;;;;;;4843970;29;20038;-84
2021/08/16 05:50:30;;;;;;;23.25;5.45;;;37.90;71.10;;;;;;4843908;29;20157;-84
2021/08/16 05:52:56;;;;;;;20.35;5.45;;;38.50;70.10;;;;;;4839344;29;20054;-84
2021/08/16 05:55:22;;;;;;;17.63;5.10;;;39.10;69.60;;;;;;4825829;29;20072;-84
2021/08/16 05:57:48;;;;;;;8.82;4.55;;;39.80;68.60;;;;;;4825989;29;20037;-84
2021/08/16 06:00:16;;;;;;;11.43;4.95;;;40.40;67.10;;;;;;4825433;29;20022;-84
2021/08/16 06:02:42;;;;;;;12.60;5.20;;;40.70;67.20;;;;;;4824312;29;20103;-84
2021/08/16 06:05:08;;;;;;;20.80;5.40;;;40.70;66.80;;;;;;4825549;29;20030;-84
2021/08/16 06:07:33;;;;;;;17.77;5.05;;;40.50;67.70;;;;;;4825623;29;20034;-84
2021/08/16 06:09:59;;;;;;;17.35;5.28;;;40.70;67.00;;;;;;4825459;29;20480;-84
2021/08/16 06:12:25;;;;;;;27.30;5.40;;;40.70;66.60;;;;;;4825275;29;20088;-84
2021/08/16 06:14:51;;;;;;;14.00;4.80;;;40.80;66.60;;;;;;4825659;29;20041;-83
2021/08/16 06:17:17;;;;;;;13.85;5.68;;;41.40;65.30;;;;;;4825300;29;20038;-84
2021/08/16 06:19:43;;;;;;;14.25;4.70;;;41.60;65.60;;;;;;4825374;29;20031;-85
2021/08/16 06:22:09;;;;;;;9.23;4.47;;;41.30;65.10;;;;;;4839033;29;20038;-83
2021/08/16 06:24:36;;;;;;;13.05;4.35;;;41.10;63.00;;;;;;4825384;29;20046;-83
2021/08/16 06:27:03;;;;;;;13.95;4.75;;;40.90;62.20;;;;;;4825164;29;20041;-81
2021/08/16 06:29:28;;;;;;;10.48;4.45;;;41.00;63.30;;;;;;4824993;29;20497;-81
2021/08/16 06:31:54;;;;;;;13.88;4.53;;;41.40;63.50;;;;;;4825220;29;20146;-83
2021/08/16 06:34:22;;;;;;;23.65;4.50;;;41.70;62.70;;;;;;4825448;29;20030;-83
2021/08/16 06:36:53;;;;;;;20.45;4.18;;;42.20;62.60;;;;;;4824973;29;20576;-81
2021/08/16 06:39:20;;;;;;;12.13;3.85;;;42.70;61.30;;;;;;4825315;29;20030;-81
2021/08/16 06:41:48;;;;;;;13.77;3.95;;;42.50;60.20;;;;;;4825241;29;20117;-81
2021/08/16 06:44:17;;;;;;;14.38;3.90;;;42.10;60.70;;;;;;4824939;29;20035;-81
2021/08/16 06:46:44;;;;;;;10.18;4.05;;;42.20;60.80;;;;;;4824925;29;20429;-80
2021/08/16 06:49:09;;;;;;;15.13;3.38;;;42.50;59.90;;;;;;4824949;29;20054;-81
2021/08/16 06:51:35;;;;;;;11.88;3.50;;;43.20;59.60;;;;;;4825633;29;20081;-81
2021/08/16 06:54:01;;;;;;;9.70;3.85;;;43.20;59.00;;;;;;4843369;29;20037;-81
2021/08/16 06:56:26;;;;;;;12.52;4.63;;;43.40;58.80;;;;;;4843194;29;20045;-81
2021/08/16 06:58:52;;;;;;;6.20;3.17;;;43.80;58.80;;;;;;4842821;29;20030;-82
2021/08/16 07:01:22;;;;;;;8.15;3.30;;;44.30;57.90;;;;;;4842845;29;20189;-82
2021/08/16 07:03:48;;;;;;;9.25;3.40;;;44.40;57.30;;;;;;4842933;29;20113;-82
2021/08/16 07:06:15;;;;;;;13.10;3.78;;;44.80;57.20;;;;;;4843160;29;20118;-81
2021/08/16 07:08:41;;;;;;;18.30;3.63;;;44.90;56.30;;;;;;4842824;29;20141;-82
2021/08/16 07:11:06;;;;;;;16.75;3.30;;;45.30;56.60;;;;;;4842926;29;20535;-82
2021/08/16 07:13:32;;;;;;;15.98;3.58;;;45.20;56.50;;;;;;4842887;29;20030;-81
2021/08/16 07:15:58;;;;;;;15.43;2.92;;;44.30;56.10;;;;;;4841755;29;20111;-82
2021/08/16 07:18:24;;;;;;;14.65;3.40;;;43.80;56.30;;;;;;4842682;29;20038;-82
2021/08/16 07:20:49;;;;;;;13.45;3.10;;;43.20;56.20;;;;;;4841516;29;20046;-82
2021/08/16 07:23:15;;;;;;;12.20;3.63;;;41.50;57.60;;;;;;4843066;29;20037;-81
2021/08/16 07:25:41;;;;;;;10.73;3.53;;;40.00;59.10;;;;;;4842401;29;20513;-82
2021/08/16 07:28:07;;;;;;;19.80;3.88;;;38.90;60.80;;;;;;4842714;29;20026;-82
2021/08/16 07:30:33;;;;;;;11.77;3.72;;;39.10;61.70;;;;;;4842409;29;20396;-82
2021/08/16 07:33:00;;;;;;;10.77;3.38;;;40.40;60.50;;;;;;4841303;29;20038;-82
2021/08/16 07:35:25;;;;;;;11.52;3.67;;;42.00;58.80;;;;;;4842795;29;20034;-82
2021/08/16 07:37:51;;;;;;;17.25;3.83;;;43.20;57.50;;;;;;4842501;29;20380;-82
2021/08/16 07:40:19;;;;;;;8.90;3.50;;;44.10;56.70;;;;;;4842656;29;20069;-82
2021/08/16 07:42:45;;;;;;;16.92;4.60;;;43.80;56.40;;;;;;4826153;29;20071;-82
2021/08/16 07:45:12;;;;;;;13.90;3.60;;;42.70;57.60;;;;;;4842489;29;20117;-83
2021/08/16 07:47:38;;;;;;;22.45;3.50;;;42.80;58.40;;;;;;4842738;29;20041;-82
2021/08/16 07:50:09;;;;;;;8.90;3.10;;;43.40;58.40;;;;;;4842454;29;20034;-81
2021/08/16 07:52:37;;;;;;;11.18;3.50;;;43.20;58.00;;;;;;4842520;29;20050;-81
2021/08/16 07:55:04;;;;;;;13.20;3.55;;;42.40;58.70;;;;;;4841204;29;20544;-81
2021/08/16 07:57:31;;;;;;;19.42;3.67;;;41.20;60.30;;;;;;4844722;29;20038;-82
2021/08/16 07:59:57;;;;;;;13.57;3.45;;;40.90;61.30;;;;;;4849660;29;20033;-82
2021/08/16 08:02:23;;;;;;;11.30;3.47;;;41.30;61.50;;;;;;4845541;29;20065;-81
2021/08/16 08:04:49;;;;;;;10.40;3.53;;;41.80;61.20;;;;;;4845891;29;20476;-83
2021/08/16 08:07:14;;;;;;;18.25;3.63;;;41.80;61.70;;;;;;4846056;29;20121;-82
2021/08/16 08:09:40;;;;;;;15.80;4.43;;;42.10;61.20;;;;;;4845805;29;20030;-83
2021/08/16 08:12:06;;;;;;;9.10;3.45;;;42.30;60.80;;;;;;4845790;29;20072;-82
2021/08/16 08:14:33;;;;;;;22.73;4.18;;;42.60;60.50;;;;;;4845576;29;20094;-84
2021/08/16 08:16:59;;;;;;;23.27;3.55;;;42.80;60.10;;;;;;4845887;29;20093;-83
2021/08/16 08:19:25;;;;;;;13.13;3.08;;;42.90;60.40;;;;;;4828595;29;20480;-80
2021/08/16 08:21:50;;;;;;;13.25;3.95;;;42.30;60.60;;;;;;4845505;29;20030;-83
2021/08/16 08:24:16;;;;;;;13.52;3.53;;;42.30;60.80;;;;;;4845449;29;20105;-81
2021/08/16 08:26:42;;;;;;;15.65;3.70;;;42.30;60.60;;;;;;4845461;29;20499;-81
2021/08/16 08:29:07;;;;;;;7.60;3.20;;;42.30;60.30;;;;;;4845591;29;20066;-81
2021/08/16 08:31:36;;;;;;;9.07;3.17;;;42.20;60.70;;;;;;4845787;29;20049;-81
2021/08/16 08:34:01;;;;;;;9.43;4.03;;;42.10;60.70;;;;;;4845166;29;20120;-81
2021/08/16 08:36:27;;;;;;;15.05;3.58;;;42.00;61.30;;;;;;4845165;29;20153;-81
2021/08/16 08:38:53;;;;;;;8.68;3.60;;;41.60;62.20;;;;;;4845415;29;20037;-82
2021/08/16 08:41:21;;;;;;;12.57;3.97;;;41.10;62.80;;;;;;4845287;29;20113;-81
2021/08/16 08:43:47;;;;;;;25.17;4.30;;;41.00;63.10;;;;;;4843976;29;20041;-81
2021/08/16 08:46:14;;;;;;;22.05;5.90;;;40.70;63.50;;;;;;4845382;29;20034;-81
2021/08/16 08:48:39;;;;;;;21.33;4.82;;;40.20;63.80;;;;;;4845260;29;20151;-82
2021/08/16 08:51:05;;;;;;;29.10;5.38;;;39.50;64.50;;;;;;4843364;29;20137;-82
2021/08/16 08:53:31;;;;;;;20.05;5.13;;;38.90;65.60;;;;;;4844689;29;20522;-81
2021/08/16 08:55:57;;;;;;;41.78;6.13;;;38.30;66.80;;;;;;4844877;29;20038;-82
2021/08/16 08:58:23;;;;;;;30.05;6.13;;;38.10;67.40;;;;;;4845180;29;20492;-81
2021/08/16 09:00:49;;;;;;;31.08;6.40;;;37.90;67.20;;;;;;4843575;29;20090;-81
2021/08/16 09:03:15;;;;;;;27.25;5.28;;;37.70;68.30;;;;;;4844884;29;20034;-80
2021/08/16 09:05:55;;;;;;;27.90;5.40;;;37.30;69.60;;;;;;4843401;29;20041;-82
2021/08/16 09:08:34;;;;;;;32.60;6.07;;;37.10;70.70;;;;;;4844718;29;20066;-80
2021/08/16 09:11:14;;;;;;;21.85;6.90;;;36.60;71.80;;;;;;4843377;29;20464;-81
2021/08/16 09:13:57;;;;;;;41.58;6.03;;;36.60;72.50;;;;;;4844956;29;20034;-81
2021/08/16 09:16:24;;;;;;;27.13;5.78;;;36.40;73.20;;;;;;4844518;29;20381;-80
2021/08/16 09:18:51;;;;;;;35.65;5.90;;;35.90;73.90;;;;;;4844485;29;20037;-80
2021/08/16 09:21:32;;;;;;;34.13;6.07;;;35.90;75.10;;;;;;4844531;29;20044;-81
2021/08/16 09:23:59;;;;;;;23.95;6.43;;;35.50;75.50;;;;;;4844697;29;20046;-80
2021/08/16 09:26:30;;;;;;;32.65;6.32;;;35.50;76.30;;;;;;4844658;29;20026;-80
2021/08/16 09:29:08;;;;;;;23.38;5.40;;;35.40;77.00;;;;;;4843183;29;20040;-80
2021/08/16 09:31:33;;;;;;;29.27;5.60;;;35.40;77.10;;;;;;4843983;29;20048;-81
2021/08/16 09:34:01;;;;;;;38.60;7.18;;;35.50;77.30;;;;;;4844138;29;20131;-83
2021/08/16 09:36:37;;;;;;;29.98;6.72;;;35.50;78.00;;;;;;4842879;29;20572;-82
2021/08/16 09:39:15;;;;;;;22.17;5.07;;;35.40;77.40;;;;;;4844094;29;20387;-82
2021/08/16 09:41:41;;;;;;;26.50;6.10;;;35.40;78.50;;;;;;4843922;29;20057;-82
2021/08/16 09:44:11;;;;;;;27.27;6.07;;;35.40;78.50;;;;;;4844117;29;20030;-83
2021/08/16 09:46:37;;;;;;;20.10;6.03;;;35.40;79.20;;;;;;4844013;29;20369;-80
2021/08/16 09:49:04;;;;;;;45.33;7.22;;;35.50;79.40;;;;;;4843659;29;20026;-84
2021/08/16 09:51:34;;;;;;;28.25;6.00;;;35.60;79.00;;;;;;4844088;29;20049;-79
2021/08/16 09:54:01;;;;;;;42.60;9.20;;;35.60;78.80;;;;;;4825455;29;20669;-81
2021/08/16 09:56:27;;;;;;;31.70;6.78;;;35.60;78.70;;;;;;4839454;29;20045;-82
2021/08/16 09:58:53;;;;;;;25.35;6.55;;;35.40;79.20;;;;;;4825697;29;20035;-81
2021/08/16 10:01:19;;;;;;;32.75;7.03;;;35.30;79.60;;;;;;4825503;29;20058;-81
2021/08/16 10:03:45;;;;;;;30.90;6.75;;;35.10;80.30;;;;;;4825486;29;20066;-82
2021/08/16 10:06:18;;;;;;;26.48;7.47;;;35.10;81.10;;;;;;4825013;29;20578;-80
2021/08/16 10:08:53;;;;;;;38.38;7.43;;;35.10;81.60;;;;;;4825806;29;20113;-81
2021/08/16 10:11:20;;;;;;;30.95;6.40;;;35.00;80.80;;;;;;4825249;29;20046;-80
2021/08/16 10:13:59;;;;;;;33.58;6.55;;;35.00;81.30;;;;;;4825491;29;20030;-82
2021/08/16 10:16:29;;;;;;;25.33;6.40;;;35.10;81.30;;;;;;4825061;29;20039;-82
2021/08/16 10:19:11;;;;;;;22.67;7.18;;;35.00;82.30;;;;;;4824732;29;20140;-82
2021/08/16 10:21:38;;;;;;;35.80;7.25;;;34.90;81.90;;;;;;4825339;29;20091;-82
2021/08/16 10:24:16;;;;;;;27.90;7.28;;;34.90;82.90;;;;;;4825142;29;20030;-82
2021/08/16 10:26:52;;;;;;;35.17;6.40;;;35.00;83.30;;;;;;4824937;29;20113;-84
2021/08/16 10:29:18;;;;;;;35.95;7.03;;;35.00;82.70;;;;;;4825009;29;20125;-82
2021/08/16 10:31:52;;;;;;;27.67;6.80;;;35.00;82.30;;;;;;4824864;29;20070;-81
2021/08/16 10:34:36;;;;;;;27.23;7.38;;;34.80;82.90;;;;;;4825147;29;20039;-81
2021/08/16 10:37:09;;;;;;;29.15;6.63;;;34.80;84.00;;;;;;4825176;29;20111;-81
2021/08/16 10:39:45;;;;;;;24.80;6.35;;;34.80;84.80;;;;;;4824766;29;20084;-83
2021/08/16 10:42:16;;;;;;;28.35;6.90;;;34.70;83.50;;;;;;4824958;29;20509;-82
2021/08/16 10:44:44;;;;;;;;;;;34.80;83.90;;;;;;4828396;29;20031;-81
2021/08/16 10:47:11;;;;;;;32.60;5.85;;;34.90;82.90;;;;;;4825131;29;19916;-81
2021/08/16 10:49:40;;;;;;;32.65;6.65;;;35.20;82.10;;;;;;4824676;29;20179;-81
2021/08/16 10:52:22;;;;;;;25.23;6.57;;;35.30;81.50;;;;;;4828870;29;20054;-83
2021/08/16 10:54:48;;;;;;;;;;;35.30;81.10;;;;;;4843266;29;20034;-80
2021/08/16 10:57:14;;;;;;;25.80;6.57;;;35.00;81.40;;;;;;4842816;29;19916;-83
2021/08/16 10:59:39;;;;;;;23.80;5.63;;;34.90;81.00;;;;;;4842831;29;20149;-84
2021/08/16 11:02:05;;;;;;;20.13;5.68;;;34.80;80.90;;;;;;4842711;29;20446;-83
2021/08/16 11:04:36;;;;;;;23.98;5.22;;;34.80;81.10;;;;;;4842332;29;20037;-81
2021/08/16 11:07:06;;;;;;;;;;;34.80;81.20;;;;;;4840869;29;20254;-79
2021/08/16 11:09:36;;;;;;;20.40;6.15;;;34.80;81.00;;;;;;4841810;29;20015;-78
2021/08/16 11:12:09;;;;;;;17.02;5.60;;;34.90;80.40;;;;;;4841835;29;20102;-80
2021/08/16 11:14:38;;;;;;;22.92;5.88;;;35.00;80.00;;;;;;4840413;29;20050;-79
2021/08/16 11:17:04;;;;;;;17.58;6.70;;;34.90;80.00;;;;;;4841664;29;20038;-80
2021/08/16 11:19:45;;;;;;;23.42;5.82;;;34.70;79.60;;;;;;4841172;29;20034;-78
2021/08/16 11:22:11;;;;;;;24.25;5.70;;;34.70;80.00;;;;;;4841518;29;20495;-79
2021/08/16 11:24:38;;;;;;;19.35;5.32;;;34.80;80.10;;;;;;4841397;29;20499;-79
2021/08/16 11:27:09;;;;;;;21.00;5.00;;;35.00;79.70;;;;;;4841521;29;20034;-79
2021/08/16 11:29:36;;;;;;;19.23;5.80;;;35.30;79.20;;;;;;4841543;29;20042;-78
2021/08/16 11:32:05;;;;;;;23.67;5.25;;;35.50;78.60;;;;;;4840901;29;20058;-79
2021/08/16 11:34:43;;;;;;;41.42;6.50;;;35.60;78.70;;;;;;4840996;29;20034;-79
2021/08/16 11:37:10;;;;;;;21.30;4.75;;;35.70;78.80;;;;;;4841538;29;20034;-79
2021/08/16 11:39:36;;;;;;;15.27;4.57;;;35.90;78.90;;;;;;4841378;29;20038;-79
2021/08/16 11:42:03;;;;;;;25.17;5.40;;;35.90;78.50;;;;;;4841119;29;20045;-78
2021/08/16 11:44:31;;;;;;;20.70;5.28;;;36.00;78.70;;;;;;4842138;29;20508;-80
2021/08/16 11:47:01;;;;;;;30.92;6.10;;;36.10;78.50;;;;;;4842858;29;20081;-79
2021/08/16 11:49:34;;;;;;;17.63;5.50;;;36.10;78.00;;;;;;4842256;29;20094;-78
2021/08/16 11:52:01;;;;;;;31.52;7.28;;;36.20;78.00;;;;;;4842444;29;20046;-79
2021/08/16 11:54:32;;;;;;;23.70;5.80;;;36.10;78.10;;;;;;4842143;29;20038;-80
2021/08/16 11:57:00;;;;;;;31.95;6.40;;;36.10;77.20;;;;;;4842408;29;20082;-76
2021/08/16 11:59:27;;;;;;;29.75;7.03;;;36.10;77.50;;;;;;4842316;29;20072;-79
2021/08/16 12:01:55;;;;;;;24.75;6.07;;;36.10;77.20;;;;;;4842076;29;20030;-80
2021/08/16 12:04:21;;;;;;;30.85;6.47;;;36.00;78.10;;;;;;4842086;29;20034;-79
2021/08/16 12:06:49;;;;;;;32.45;7.03;;;36.00;77.10;;;;;;4842270;29;20035;-79
2021/08/16 12:09:16;;;;;;;34.60;6.43;;;35.90;77.00;;;;;;4842056;29;20117;-80
2021/08/16 12:11:41;;;;;;;31.10;7.18;;;35.90;76.60;;;;;;4841933;29;20050;-80
2021/08/16 12:14:07;;;;;;;27.38;6.03;;;35.90;76.30;;;;;;4842089;29;20033;-78
2021/08/16 12:16:35;;;;;;;32.90;6.68;;;35.80;76.50;;;;;;4842264;29;20038;-79
2021/08/16 12:19:02;;;;;;;46.45;6.57;;;35.80;76.50;;;;;;4842299;29;20056;-79
2021/08/16 12:21:28;;;;;;;36.55;6.75;;;35.80;76.20;;;;;;4841960;29;20038;-79
2021/08/16 12:23:57;;;;;;;36.22;6.80;;;35.90;75.90;;;;;;4842275;29;20070;-78
2021/08/16 12:26:38;;;;;;;27.83;6.75;;;35.90;75.70;;;;;;4842132;29;20030;-79
2021/08/16 12:29:19;;;;;;;24.80;6.35;;;35.80;75.70;;;;;;4842087;29;20112;-80
2021/08/16 12:31:45;;;;;;;29.88;6.13;;;35.80;75.50;;;;;;4841840;29;20042;-79
2021/08/16 12:34:13;;;;;;;29.52;6.80;;;35.70;75.50;;;;;;4841680;29;20034;-79
2021/08/16 12:36:41;;;;;;;33.30;8.30;;;35.60;75.50;;;;;;4841788;29;20117;-81
2021/08/16 12:39:12;;;;;;;32.70;7.32;;;35.50;75.90;;;;;;4841830;29;20038;-79
2021/08/16 12:41:39;;;;;;;43.30;8.43;;;35.50;76.30;;;;;;4841650;29;20034;-78